• Join FlightAware (Why Join?)
  • Login
  • US Flag 
12:56AM EDT


 

Airport Tracker/Info


-or-


 

Live Flight TrackerFlight Track Log ✈ WEW1540 ✈ 07-May-2013 ✈ CYKY - CYYN

Flight Track Log - Related Links

Times and Time Zones

All times are in EDT time to prevent confusion due to time zone crossing. See the WEW1540 flight status page for this flight to view local times or setup timezone preferences in your user account.

Time Position Orientation Groundspeed Altitude Reporting Facility
EDT Latitude Longitude Course Direction KTS MPH feet Rate Location/Type
07:09PM 51.4167 -109.1167 142° Southeast 140 161 8,500  Level Winnipeg Center
07:10PM 51.3833 -109.0667 137° Southeast 150 173 9,000 240 Climbing Winnipeg Center
07:11PM 51.3500 -109.0167 137° Southeast 180 207 9,000  Level Winnipeg Center
07:12PM 51.3000 -108.9667 148° Southeast 190 219 9,100  Climbing Winnipeg Center
07:13PM 51.2500 -108.9333 157° South 180 207 9,100  Level Winnipeg Center
07:14PM 51.1177 -108.6834 142° Southeast  Level Estimated
07:14PM 51.2167 -108.8667 129° Southeast 200 230 9,100  Level Winnipeg Center
07:15PM 51.1667 -108.8333 157° South 200 230 9,100  Level Winnipeg Center
07:16PM 51.1167 -108.7667 140° Southeast 220 253 9,100  Level Winnipeg Center
07:17PM 51.1000 -108.7000 112° Southeast 190 219 9,100  Level Winnipeg Center
07:18PM 51.0500 -108.6667 157° South 200 230 9,100  Level Winnipeg Center
07:19PM 51.0000 -108.6000 140° Southeast 200 230 9,100  Level Winnipeg Center
07:20PM 50.9833 -108.5333 112° Southeast 190 219 9,100  Level Winnipeg Center
07:21PM 50.9333 -108.5000 157° South 190 219 9,100  Level Winnipeg Center
07:22PM 50.8833 -108.4500 148° Southeast 200 230 9,100  Level Winnipeg Center
07:25PM 50.7500 -108.3167 148° Southeast 180 207 9,100  Level Winnipeg Center
07:26PM 50.6667 -108.2667 159° South 200 230 9,100  Level Winnipeg Center
07:28PM 50.6409 -108.1828 116° Southeast  Level FlightAware Approximate
07:35PM 50.4013 -107.8437 144° Southeast  Level Estimated
07:36PM 50.3666 -107.7963 139° Southeast  Level FlightAware Approximate
07:37PM 50.3318 -107.7491 139° Southeast  Level FlightAware Approximate
07:38PM 50.2970 -107.7018 139° Southeast  Level FlightAware Approximate
07:39PM 50.2919 -107.6906 144° Southeast  Level Estimated
07:40PM 50.2919 -107.6906 144° Southeast  Level Estimated
07:41PM 50.2919 -107.6906 144° Southeast  Level Estimated
07:42PM 50.2919 -107.6906 144° Southeast  Level Estimated
07:43PM 50.2919 -107.6906 144° Southeast  Level Estimated
07:44PM 50.2919 -107.6906 144° Southeast  Level Estimated
07:45PM 50.2919 -107.6906 144° Southeast  Level Estimated
07:46PM 50.2919 -107.6906 144° Southeast  Level Estimated
07:47PM 50.2919 -107.6906 144° Southeast  Level Estimated
07:48PM 50.2919 -107.6906 144° Southeast  Level Estimated